• Join FlightAware (Why Join?)
  • Login
  • US Flag 
05:12AM EDT


 

Airport Tracker/Info


-or-


 

Live Flight TrackerFlight Track Log ✈ AWE1741 ✈ 05-Feb-2014 ✈ KDCA - KTPA

Flight Track Log - Related Links

Times and Time Zones

All times are in EST time to prevent confusion due to time zone crossing. See the AWE1741 flight status page for this flight to view local times or setup timezone preferences in your user account.

Time Position Orientation Groundspeed Altitude Reporting Facility
EST Latitude Longitude Course Direction KTS MPH feet Rate Location/Type
04:22PM 38.8667 -77.0333 225° Southwest 161 185 1,000  Level Potomac TRACON
04:24PM 38.9206 -77.1072 313° West 180 207 3,700 2,400 Climbing Washington Center
04:25PM 38.6217 -77.2803 222° Southwest  Level FlightAware Approximate
04:25PM 38.9697 -77.1642 318° Northwest 210 242 7,200  Level Washington Center
04:26PM 38.5406 -77.3749 222° Southwest  Level FlightAware Approximate
04:26PM 39.0192 -77.2161 321° Northwest 234 269 10,300  Level Washington Center
04:27PM 38.4629 -77.4740 225° Southwest  Level FlightAware Approximate
04:27PM 39.0119 -77.2906 263° West 222 255 14,300  Level Washington Center
04:28PM 38.9447 -77.3211 199° South 175 201 15,000 1,680 Climbing Washington Center
04:29PM 38.8631 -77.3567 199° South 227 261 17,700 2,520 Climbing Washington Center
04:30PM 38.7811 -77.3944 200° South 284 327 20,100 1,620 Climbing Washington Center
04:31PM 38.6972 -77.4297 198° South 310 357 21,000 420 Climbing Washington Center
04:32PM 38.6131 -77.4703 201° Southwest 316 364 21,000  Level Washington Center
04:33PM 38.5269 -77.5078 199° South 321 369 21,100 1,020 Climbing Washington Center
04:34PM 38.4347 -77.5506 200° South 326 375 23,100 1,920 Climbing Washington Center
04:35PM 38.3628 -77.6147 215° Southwest 325 374 25,100 1,680 Climbing Washington Center
04:36PM 38.3092 -77.7006 231° Southwest 310 357 26,500 1,380 Climbing Washington Center
04:37PM 38.2533 -77.7889 231° Southwest 316 364 27,900 1,380 Climbing Washington Center
04:38PM 38.1953 -77.8797 231° Southwest 328 377 29,300 1,260 Climbing Washington Center
04:39PM 38.1331 -77.9728 230° Southwest 340 391 30,500 1,320 Climbing Washington Center
04:40PM 38.0686 -78.0606 227° Southwest 345 397 32,000 1,380 Climbing Washington Center
04:41PM 37.9942 -78.1319 217° Southwest 344 396 33,300 960 Climbing Washington Center
04:42PM 37.9217 -78.2058 219° Southwest 344 396 34,000 300 Climbing Washington Center
04:43PM 37.8450 -78.2819 218° Southwest 344 396 34,000 300 Level Washington Center
04:44PM 37.7722 -78.3531 218° Southwest 344 396 34,600 780 Climbing Washington Center
04:45PM 37.7019 -78.4186 216° Southwest 344 396 35,600 660 Climbing Washington Center
04:46PM 37.6272 -78.4919 218° Southwest 344 396 36,000 180 Climbing Washington Center
04:47PM 37.5503 -78.5650 217° Southwest 349 402 36,000  Level Washington Center
04:48PM 37.4736 -78.6353 216° Southwest 349 402 36,000  Level Washington Center
04:49PM 37.3964 -78.7106 218° Southwest 349 402 36,000  Level Washington Center
04:50PM 37.3131 -78.7908 217° Southwest 349 402 36,000  Level Washington Center
04:51PM 37.2361 -78.8606 216° Southwest 349 402 36,000  Level Washington Center
04:52PM 37.1611 -78.9331 218° Southwest 349 402 36,000  Level Washington Center
04:53PM 37.0839 -79.0050 217° Southwest 349 402 36,000  Level Washington Center
04:54PM 37.0108 -79.0772 218° Southwest 349 402 36,000  Level Washington Center
04:55PM 36.9400 -79.1442 217° Southwest 349 402 36,000  Level Washington Center
04:56PM 36.8650 -79.2136 217° Southwest 349 402 36,000  Level Washington Center
04:57PM 36.7897 -79.2825 216° Southwest 349 402 36,000  Level Washington Center
04:58PM 36.7144 -79.3542 217° Southwest 349 402 36,000  Level Washington Center
04:59PM 36.6372 -79.4281 218° Southwest 349 402 36,000  Level Washington Center
05:00PM 36.5553 -79.5042 217° Southwest 349 402 36,000  Level Washington Center
05:01PM 36.4758 -79.5750 216° Southwest 349 402 36,000  Level Washington Center
05:03PM 36.2978 -79.7392 217° Southwest 349 402 36,000  Level Atlanta Center
05:04PM 36.2233 -79.8100 218° Southwest 349 402 36,000  Level Atlanta Center
05:05PM 36.1444 -79.8836 217° Southwest 349 402 36,000  Level Atlanta Center
05:06PM 36.0675 -79.9519 216° Southwest 349 402 36,000  Level Atlanta Center
05:07PM 35.9672 -80.0133 206° Southwest 355 409 36,000  Level Atlanta Center
05:08PM 35.8750 -80.0614 203° Southwest 361 415 36,000  Level Atlanta Center
05:09PM 35.7806 -80.1097 203° Southwest 366 421 36,000  Level Atlanta Center
05:10PM 35.6839 -80.1578 202° Southwest 372 428 36,000  Level Atlanta Center
05:11PM 35.5978 -80.2028 203° Southwest 372 428 36,000  Level Atlanta Center
05:12PM 35.5033 -80.2503 202° Southwest 372 428 36,000  Level Atlanta Center
05:13PM 35.3964 -80.3036 202° Southwest 372 428 36,000  Level Atlanta Center
05:14PM 35.3100 -80.3408 199° South 372 428 36,000  Level Atlanta Center
05:16PM 35.0978 -80.4519 203° Southwest 371 427 36,000  Level Jacksonville Center
05:17PM 34.9986 -80.5003 202° Southwest 377 434 36,000  Level Jacksonville Center
05:18PM 34.8994 -80.5489 202° Southwest 377 434 36,000  Level Jacksonville Center
05:19PM 34.8208 -80.5864 201° Southwest 383 441 36,000 -60 Level Jacksonville Center
05:20PM 34.7156 -80.6447 204° Southwest 383 441 35,900  Descending Jacksonville Center
05:21PM 34.6100 -80.6928 201° Southwest 383 441 36,000  Climbing Jacksonville Center
05:22PM 34.5233 -80.7381 203° Southwest 377 434 35,900 -60 Descending Jacksonville Center
05:23PM 34.4239 -80.7831 200° South 383 441 35,900  Level Jacksonville Center
05:24PM 34.3203 -80.8283 200° South 401 461 36,000  Climbing Jacksonville Center
05:25PM 34.2272 -80.8783 204° Southwest 385 443 36,000 -60 Level Jacksonville Center
05:26PM 34.1278 -80.9283 203° Southwest 385 443 35,900  Descending Jacksonville Center
05:27PM 34.0264 -80.9758 201° Southwest 385 443 36,000  Climbing Jacksonville Center
05:28PM 33.9269 -81.0256 203° Southwest 390 449 36,000  Level Jacksonville Center
05:29PM 33.8169 -81.0753 201° Southwest 390 449 36,000 -60 Level Jacksonville Center
05:30PM 33.7281 -81.1219 204° Southwest 390 449 35,900  Descending Jacksonville Center
05:31PM 33.6283 -81.1689 201° Southwest 390 449 36,000  Climbing Jacksonville Center
05:32PM 33.5289 -81.2206 203° Southwest 390 449 36,000  Level Jacksonville Center
05:33PM 33.4272 -81.2675 201° Southwest 390 449 36,000  Level Jacksonville Center
05:34PM 33.3278 -81.3164 202° Southwest 390 449 36,000  Level Jacksonville Center
05:35PM 33.2200 -81.3681 202° Southwest 390 449 36,000  Level Jacksonville Center
05:36PM 33.1286 -81.4167 204° Southwest 390 449 36,000  Level Jacksonville Center
05:37PM 33.0311 -81.4606 201° Southwest 390 449 36,000 -60 Level Jacksonville Center
05:38PM 32.9294 -81.5117 203° Southwest 390 449 35,900 -60 Descending Jacksonville Center
05:39PM 32.8317 -81.5600 203° Southwest 390 449 35,900  Level Jacksonville Center
05:40PM 32.7319 -81.6058 201° Southwest 390 449 36,000  Climbing Jacksonville Center
05:41PM 32.6219 -81.6617 203° Southwest 395 455 36,000  Level Jacksonville Center
05:42PM 32.5222 -81.7100 202° Southwest 395 455 36,000  Level Jacksonville Center
05:43PM 32.4203 -81.7581 202° Southwest 390 449 36,000  Level Jacksonville Center
05:44PM 32.3206 -81.8036 201° Southwest 390 449 36,000  Level Jacksonville Center
05:45PM 32.2292 -81.8489 203° Southwest 390 449 36,000  Level Jacksonville Center
05:46PM 32.1167 -81.9017 202° Southwest 397 457 36,000  Level Jacksonville Center
05:47PM 32.0128 -81.9517 202° Southwest 397 457 36,000  Level Jacksonville Center
05:48PM 31.9192 -81.9919 200° South 397 457 36,000  Level Jacksonville Center
05:49PM 31.8025 -82.0394 199° South 403 464 36,000  Level Jacksonville Center
05:50PM 31.7067 -82.0769 198° South 403 464 36,000  Level Jacksonville Center
05:51PM 31.6025 -82.1242 201° Southwest 410 472 36,000  Level Jacksonville Center
05:52PM 31.4922 -82.1642 197° South 410 472 36,000  Level Jacksonville Center
05:53PM 31.3858 -82.2136 202° Southwest 410 472 36,000  Level Jacksonville Center
05:54PM 31.2733 -82.2267 186° South 404 465 36,000 -60 Level Jacksonville Center
05:55PM 31.1564 -82.2372 184° South 415 478 35,900 -60 Descending Jacksonville Center
05:56PM 31.0436 -82.2453 184° South 415 478 35,900  Level Jacksonville Center
05:57PM 30.9289 -82.2556 184° South 410 472 35,900  Level Jacksonville Center
05:58PM 30.8142 -82.2636 183° South 410 472 36,000  Climbing Jacksonville Center
05:59PM 30.6950 -82.2742 184° South 415 478 36,000  Level Jacksonville Center
06:00PM 30.5803 -82.2844 184° South 421 484 36,000  Level Jacksonville Center
06:01PM 30.4656 -82.2878 181° South 421 484 36,000 -300 Level Jacksonville Center
06:02PM 30.3486 -82.2956 183° South 421 484 35,500 -720 Descending Jacksonville Center
06:03PM 30.2339 -82.3058 184° South 421 484 34,600 -960 Descending Jacksonville Center
06:04PM 30.1150 -82.3161 184° South 421 484 33,600 -1,020 Descending Jacksonville Center
06:05PM 29.9875 -82.3289 185° South 435 501 32,600 -1,020 Descending Jacksonville Center
06:06PM 29.8686 -82.3369 183° South 440 506 31,600 -1,200 Descending Jacksonville Center
06:07PM 29.7456 -82.3447 183° South 440 506 30,300 -1,920 Descending Jacksonville Center
06:08PM 29.6244 -82.3550 184° South 440 506 27,800 -1,800 Descending Jacksonville Center
06:09PM 29.5053 -82.3486 177° South 434 499 26,800 -1,020 Descending Jacksonville Center
06:10PM 29.3883 -82.3350 174° South 434 499 25,800 -1,500 Descending Jacksonville Center
06:11PM 29.2736 -82.3236 175° South 429 494 23,800 -2,220 Descending Jacksonville Center
06:12PM 29.1628 -82.3100 174° South 418 481 21,400 -2,460 Descending Jacksonville Center
06:13PM 29.0583 -82.2964 174° South 398 458 18,900 -2,760 Descending Jacksonville Center
06:14PM 28.9500 -82.2853 175° South 387 445 15,900 -2,040 Descending Jacksonville Center
06:16PM 28.7500 -82.2667 175° South 369 425 13,000 -1,320 Descending Tampa TRACON
06:17PM 28.6667 -82.2667 180° South 297 342 12,100 -1,140 Descending Tampa TRACON
06:18PM 28.5833 -82.2500 170° South 284 327 10,800 -1,320 Descending Tampa TRACON
06:19PM 28.5167 -82.2500 180° South 283 326 9,700 -1,380 Descending Tampa TRACON
06:20PM 28.4333 -82.2500 180° South 278 320 8,200 -1,380 Descending Tampa TRACON
06:21PM 28.3500 -82.2667 190° South 273 314 7,000 -600 Descending Tampa TRACON
06:22PM 28.2833 -82.2667 180° South 243 280 7,000  Level Tampa TRACON
06:23PM 28.2000 -82.2667 180° South 224 258 7,000  Level Tampa TRACON
06:24PM 28.1500 -82.2667 180° South 229 264 7,000 -240 Level Tampa TRACON
06:25PM 28.0833 -82.2833 192° South 224 258 6,600 -540 Descending Tampa TRACON
06:26PM 28.0833 -82.3500 270° West 209 241 6,000 -300 Descending Tampa TRACON
06:27PM 28.1167 -82.4000 307° West 227 261 6,000 -420 Level Tampa TRACON
06:28PM 28.1667 -82.4000 360° North 205 236 5,200 -900 Descending Tampa TRACON
06:29PM 28.2167 -82.4000 360° North 197 227 4,300 -720 Descending Tampa TRACON
06:30PM 28.2667 -82.4000 360° North 197 227 4,000 -300 Descending Tampa TRACON
06:31PM 28.3167 -82.4167 344° North 183 211 3,800 -540 Descending Tampa TRACON
06:32PM 28.3167 -82.4667 270° West 174 200 3,000 -420 Descending Tampa TRACON
06:33PM 28.2667 -82.5000 210° Southwest 185 213 3,000  Level Tampa TRACON
06:34PM 28.2167 -82.5333 210° Southwest 191 220 3,000  Level Tampa TRACON
06:35PM 28.1667 -82.5333 180° South 192 221 3,000 -300 Level Tampa TRACON
06:36PM 28.1167 -82.5333 180° South 192 221 2,400 -780 Descending Tampa TRACON
06:37PM 28.0667 -82.5333 180° South 171 197 1,600 -840 Descending Tampa TRACON
06:38PM 28.0333 -82.5333 180° South 126 145 900 -720 Descending Tampa TRACON